Latest Coastal Weather Observations for Cape Wessel

IDD60701

Issued at 3:41 am CST Thursday 18 October 2018 (issued every 10 minutes, with the page automatically refreshed every 10 minutes)

About coastal observations | Map of coastal stations | Coastal observations for NT | Marine services | Other Formats
Station Details ID: 200786 Name: CAPE WESSEL Lat: -11.00 Lon: 136.76 Height: 18.0 m
Data from the previous 72 hours. | See also: Recent months at Cape Wessel
Date/Time
CST
Wind Sea
Height
m
Swell Vis
km
Cloud Weather Temp
°C
Press
hPa
Rain since
9am
mm
Dir  Spd
kts
Gust
kts
Height
m
Period
s
Dir
18/03:30am E 4 5 - - - - - - - 25.3 1010.1 -
18/03:00am ESE 5 5 - - - - - - - 25.3 1010.1 0.0
18/02:30am SE 5 7 - - - - - - - 25.6 1010.3 -
18/02:00am SE 6 7 - - - - - - - 25.7 1010.5 -
18/01:30am SE 6 7 - - - - - - - 25.8 1010.6 -
18/01:00am ESE 5 7 - - - - - - - 25.6 1010.8 -
18/12:30am ESE 5 6 - - - - - - - 25.7 1010.9 -
18/12:00am ESE 7 8 - - - - - - - 26.1 1011.0 -
 
Date/Time
CST
Wind Sea
Height
m
Swell Vis
km
Cloud Weather Temp
°C
Press
hPa
Rain since
9am
mm
Dir  Spd
kts
Gust
kts
Height
m
Period
s
Dir
17/11:30pm ESE 7 8 - - - - - - - 26.3 1011.4 -
17/11:00pm ESE 7 8 - - - - - - - 26.4 1011.7 -
17/10:30pm ESE 7 8 - - - - - - - 26.1 1011.5 -
17/10:00pm ESE 7 8 - - - - - - - 26.2 1011.4 -
17/09:30pm ESE 7 8 - - - - - - - 26.3 1011.2 -
17/09:00pm ESE 6 8 - - - - - - - 26.5 1011.1 0.0
17/08:30pm SE 8 9 - - - - - - - 26.7 1010.9 -
17/08:00pm SE 8 9 - - - - - - - 26.8 1010.7 -
17/07:30pm SE 8 9 - - - - - - - 26.9 1010.6 -
17/07:00pm SE 8 10 - - - - - - - 27.0 1010.5 -
17/06:30pm SE 6 8 - - - - - - - 27.2 1010.2 -
17/06:00pm SE 6 7 - - - - - - - 28.1 1010.0 -
17/05:30pm ESE 6 7 - - - - - - - 29.0 1009.7 -
17/05:00pm SE 7 8 - - - - - - - 29.9 1009.5 -
17/04:30pm ESE 7 9 - - - - - - - 30.2 1009.3 -
17/04:00pm SE 7 9 - - - - - - - 31.0 1009.3 -
17/03:30pm SE 7 8 - - - - - - - 30.7 1009.6 -
17/03:00pm ESE 7 8 - - - - - - - 31.8 1009.8 -
17/02:30pm ESE 8 9 - - - - - - - 31.4 1010.1 -
17/02:00pm ESE 8 9 - - - - - - - 32.5 1010.4 -
17/01:30pm ESE 8 10 - - - - - - - 32.3 1010.7 -
17/01:00pm ESE 8 10 - - - - - - - 32.6 1011.3 -
17/12:30pm ESE 9 11 - - - - - - - 31.8 1011.7 -
17/12:00pm ESE 9 11 - - - - - - - 33.3 1012.2 -
17/11:30am E 8 10 - - - - - - - 32.0 1012.4 -
17/11:00am E 8 11 - - - - - - - 32.9 1012.7 -
17/10:30am E 8 11 - - - - - - - 32.5 1012.8 -
17/10:00am E 7 8 - - - - - - - 32.5 1013.0 -
17/09:00am E 8 10 - - - - - - - 31.0 1013.0 0.0
17/08:30am E 8 10 - - - - - - - 30.5 1012.9 0.0
17/08:00am E 8 11 - - - - - - - 29.7 1012.6 0.0
17/07:30am E 8 11 - - - - - - - 28.8 1012.1 0.0
17/07:00am E 8 10 - - - - - - - 27.2 1011.9 0.0
17/06:30am ESE 8 9 - - - - - - - 26.5 1011.6 0.0
17/06:00am ESE 9 11 - - - - - - - 25.9 1011.2 0.0
17/05:30am ESE 9 12 - - - - - - - 26.0 1010.9 0.0
17/05:00am ESE 10 12 - - - - - - - 26.1 1010.6 0.0
17/04:30am ESE 11 12 - - - - - - - 25.9 1010.0 0.0
17/04:00am ESE 9 11 - - - - - - - 25.9 1009.6 0.0
17/03:30am SE 11 12 - - - - - - - 26.0 1009.6 0.0
17/03:00am ESE 10 12 - - - - - - - 26.0 1009.6 0.0
17/02:30am ESE 10 11 - - - - - - - 25.9 1009.8 0.0
17/02:00am ESE 9 11 - - - - - - - 26.0 1010.1 0.0
17/01:30am ESE 10 12 - - - - - - - 26.1 1010.4 0.0
17/01:00am ESE 10 12 - - - - - - - 26.2 1011.0 0.0
17/12:30am ESE 10 12 - - - - - - - 26.2 1011.2 0.0
17/12:00am ESE 10 11 - - - - - - - 26.3 1011.4 0.0
 
Date/Time
CST
Wind Sea
Height
m
Swell Vis
km
Cloud Weather Temp
°C
Press
hPa
Rain since
9am
mm
Dir  Spd
kts
Gust
kts
Height
m
Period
s
Dir
16/11:30pm ESE 12 14 - - - - - - - 26.5 1011.6 0.0
16/11:00pm ESE 12 14 - - - - - - - 26.6 1011.7 0.0
16/10:30pm E 12 14 - - - - - - - 26.7 1011.8 0.0
16/10:00pm ESE 14 16 - - - - - - - 26.8 1012.0 0.0
16/09:30pm E 12 15 - - - - - - - 26.8 1011.9 0.0
16/09:00pm E 12 15 - - - - - - - 26.9 1011.8 0.0
16/08:30pm E 10 13 - - - - - - - 26.9 1011.6 0.0
16/08:00pm E 10 13 - - - - - - - 26.9 1011.3 0.0
16/07:30pm E 9 11 - - - - - - - 26.9 1011.1 0.0
16/07:00pm E 8 10 - - - - - - - 27.0 1010.7 0.0
16/06:30pm ENE 9 11 - - - - - - - 27.3 1010.5 0.0
16/06:00pm ENE 9 11 - - - - - - - 27.9 1010.3 0.0
16/05:30pm ENE 10 13 - - - - - - - 28.4 1009.8 0.0
16/05:00pm ENE 10 13 - - - - - - - 29.3 1009.4 0.0
16/04:30pm ENE 10 13 - - - - - - - 30.6 1009.3 0.0
16/04:00pm ENE 10 13 - - - - - - - 31.0 1009.2 0.0
16/03:30pm ENE 11 14 - - - - - - - 31.3 1009.2 0.0
16/03:00pm ENE 11 14 - - - - - - - 31.9 1009.2 0.0
16/02:30pm ENE 10 13 - - - - - - - 33.2 1009.4 0.0
16/02:00pm ENE 11 14 - - - - - - - 33.0 1009.9 0.0
16/01:30pm ENE 10 14 - - - - - - - 32.8 1010.5 0.0
16/01:00pm ENE 11 14 - - - - - - - 33.2 1011.0 0.0
16/12:30pm ENE 8 10 - - - - - - - 33.4 1011.4 0.0
16/12:00pm ENE 8 10 - - - - - - - 32.7 1011.9 0.0
16/11:30am NE 7 9 - - - - - - - 32.5 1012.4 0.0
16/11:00am NE 7 8 - - - - - - - 32.5 1012.8 0.0
16/10:30am ENE 7 9 - - - - - - - 32.8 1013.0 0.0
16/10:00am ENE 7 8 - - - - - - - 32.5 1013.1 0.0
16/09:30am NE 7 9 - - - - - - - 31.8 1013.1 0.0
16/09:00am ENE 7 9 - - - - - - - 31.6 1013.0 0.0
16/08:30am ENE 9 10 - - - - - - - 30.5 1012.9 0.0
16/08:00am E 8 10 - - - - - - - 29.8 1012.7 0.0
16/07:30am E 9 11 - - - - - - - 28.7 1012.7 0.0
16/07:00am E 7 10 - - - - - - - 27.5 1012.5 0.0
16/06:30am E 7 9 - - - - - - - 26.2 1012.3 0.0
16/06:00am E 8 9 - - - - - - - 25.6 1011.9 0.0
16/05:30am SE 1 6 - - - - - - - 24.8 1011.5 0.0
16/05:00am SSW 3 4 - - - - - - - 25.0 1011.2 0.0
16/04:30am SSW 3 4 - - - - - - - 24.9 1010.8 0.0
16/04:00am SW 6 6 - - - - - - - 24.7 1010.7 0.0
16/03:30am ENE 1 3 - - - - - - - 25.0 1010.4 0.0
16/03:00am ENE 3 5 - - - - - - - 25.0 1010.4 0.0
16/02:30am ENE 5 6 - - - - - - - 25.2 1010.4 0.0
16/02:00am E 5 7 - - - - - - - 25.1 1010.5 0.0
16/01:30am ENE 5 6 - - - - - - - 24.9 1010.7 0.0
16/01:00am ESE 4 6 - - - - - - - 24.4 1010.9 0.0
16/12:30am CALM 0 0 - - - - - - - 24.7 1011.3 0.0
16/12:00am SSW 2 3 - - - - - - - 24.6 1011.5 0.0
 
Date/Time
CST
Wind Sea
Height
m
Swell Vis
km
Cloud Weather Temp
°C
Press
hPa
Rain since
9am
mm
Dir  Spd
kts
Gust
kts
Height
m
Period
s
Dir
15/11:30pm CALM 0 0 - - - - - - - 25.1 1012.0 0.0
15/11:00pm CALM 0 0 - - - - - - - 25.1 1012.2 0.0
15/10:30pm CALM 0 0 - - - - - - - 25.0 1012.4 0.0
15/10:00pm CALM 0 0 - - - - - - - 25.0 1012.3 0.0
15/09:30pm CALM 0 0 - - - - - - - 25.2 1011.8 0.0
15/09:00pm N 3 3 - - - - - - - 25.2 1011.2 0.0
15/08:30pm CALM 0 0 - - - - - - - 25.5 1010.9 0.0
15/08:00pm CALM 0 0 - - - - - - - 25.5 1010.8 0.0
15/07:30pm CALM 0 0 - - - - - - - 25.7 1010.7 0.0
15/07:00pm ENE 1 3 - - - - - - - 26.2 1010.7 0.0
15/06:30pm ENE 4 5 - - - - - - - 26.9 1010.3 0.0
15/06:00pm ENE 5 6 - - - - - - - 28.0 1009.8 0.0
15/05:30pm NE 5 6 - - - - - - - 29.1 1009.5 0.0
15/05:00pm ENE 6 7 - - - - - - - 29.9 1009.5 0.0
15/04:30pm ENE 6 7 - - - - - - - 30.8 1009.7 0.0
15/04:00pm NE 6 7 - - - - - - - 31.0 1009.8 0.0
15/03:30pm NE 6 7 - - - - - - - 31.5 1010.0 0.0
15/03:00pm NE 6 8 - - - - - - - 31.9 1010.5 0.0
15/02:30pm NE 7 8 - - - - - - - 32.1 1010.7 0.0
15/02:00pm NE 7 9 - - - - - - - 32.3 1011.0 0.0
15/01:30pm ENE 6 8 - - - - - - - 32.4 1011.4 0.0
15/01:00pm ENE 6 8 - - - - - - - 32.6 1011.8 0.0
15/12:30pm ENE 6 8 - - - - - - - 33.0 1012.3 0.0
15/12:00pm NE 6 8 - - - - - - - 31.7 1012.7 0.0
15/11:30am NNE 6 8 - - - - - - - 31.0 1012.9 0.0
15/11:00am NNE 6 8 - - - - - - - 31.5 1013.2 0.0
15/10:30am NNE 6 8 - - - - - - - 30.3 1013.5 0.0
15/10:00am NE 7 8 - - - - - - - 30.9 1013.8 0.0
15/09:30am ENE 6 8 - - - - - - - 30.6 1014.2 0.0
15/09:00am E 5 7 - - - - - - - 29.9 1014.3 0.0
15/08:30am ENE 6 7 - - - - - - - 29.1 1014.3 0.0
15/08:00am SSE 3 4 - - - - - - - 27.9 1013.8 0.0
15/07:30am CALM 0 0 - - - - - - - 26.6 1013.5 0.0
15/07:00am CALM 0 0 - - - - - - - 25.5 1013.1 0.0
15/06:30am CALM 0 0 - - - - - - - 24.7 1012.4 0.0
15/06:00am CALM 0 0 - - - - - - - 24.6 1012.3 0.0
15/05:30am NNE 3 4 - - - - - - - 24.1 1011.7 0.0
15/05:00am NNE 5 6 - - - - - - - 24.1 1011.2 0.0
15/04:30am NE 4 5 - - - - - - - 23.6 1010.6 0.0
15/04:00am N 4 5 - - - - - - - 23.8 1010.3 0.0

Other Formats:

Comma delimited format used in spreadsheet applications
http://www.bom.gov.au/fwo/IDD60701/IDD60701.94147.axf

JavaScript Object Notation format (JSON) in row-major order
http://www.bom.gov.au/fwo/IDD60701/IDD60701.94147.json